createdAt,value
2022-07-26T00:01:05.876Z,21.45
2022-07-26T00:03:33.722Z,9.00
2022-07-26T00:06:02.354Z,8.20
2022-07-26T00:08:38.216Z,5.90
2022-07-26T00:11:07.245Z,6.20
2022-07-26T00:13:35.898Z,6.28
2022-07-26T00:16:05.761Z,5.32
2022-07-26T00:18:34.372Z,5.38
2022-07-26T00:21:02.562Z,5.95
2022-07-26T00:23:30.998Z,7.93
2022-07-26T00:26:03.097Z,18.10
2022-07-26T00:28:30.927Z,9.43
2022-07-26T00:30:59.888Z,6.53
2022-07-26T00:33:28.621Z,6.30
2022-07-26T00:35:59.890Z,9.88
2022-07-26T00:38:32.142Z,6.10
2022-07-26T00:41:01.190Z,5.90
2022-07-26T00:43:30.686Z,5.80
2022-07-26T00:45:58.736Z,5.93
2022-07-26T00:48:27.594Z,6.30
2022-07-26T00:50:58.332Z,6.80
2022-07-26T00:53:30.211Z,6.10
2022-07-26T00:55:58.862Z,6.03
2022-07-26T00:58:26.684Z,7.10
2022-07-26T01:00:54.833Z,6.85
2022-07-26T01:03:22.609Z,7.72
2022-07-26T01:05:51.016Z,9.15
2022-07-26T01:08:18.807Z,8.45
2022-07-26T01:10:46.824Z,7.50
2022-07-26T01:13:22.807Z,6.65
2022-07-26T01:15:50.978Z,9.93
2022-07-26T01:18:19.809Z,9.15
2022-07-26T01:20:48.846Z,10.60
2022-07-26T01:23:17.801Z,10.63
2022-07-26T01:25:46.077Z,12.52
2022-07-26T01:28:19.994Z,11.43
2022-07-26T01:30:49.668Z,14.02
2022-07-26T01:33:17.421Z,14.07
2022-07-26T01:35:45.785Z,13.30
2022-07-26T01:38:17.242Z,13.52
2022-07-26T01:40:45.350Z,21.95
2022-07-26T01:43:12.930Z,16.27
2022-07-26T01:45:41.069Z,13.32
2022-07-26T01:48:08.891Z,13.55
2022-07-26T01:50:37.749Z,13.38
2022-07-26T01:53:06.373Z,14.48
2022-07-26T01:55:36.387Z,13.15
2022-07-26T01:58:06.834Z,12.23
2022-07-26T02:00:35.116Z,11.43
2022-07-26T02:03:03.124Z,10.93
2022-07-26T02:05:31.837Z,10.57
2022-07-26T02:08:00.023Z,10.40
2022-07-26T02:10:47.837Z,11.82
2022-07-26T02:13:15.761Z,10.38
2022-07-26T02:15:43.471Z,10.10
2022-07-26T02:18:11.142Z,10.18
2022-07-26T02:20:38.600Z,10.07
2022-07-26T02:23:07.244Z,9.70
2022-07-26T02:25:34.950Z,8.65
2022-07-26T02:28:02.798Z,8.60
2022-07-26T02:30:30.817Z,7.75
2022-07-26T02:32:58.489Z,8.57
2022-07-26T02:35:26.270Z,11.68
2022-07-26T02:37:54.270Z,9.02
2022-07-26T02:40:25.631Z,9.35
2022-07-26T02:42:53.399Z,9.68
2022-07-26T02:49:47.815Z,8.45
2022-07-26T02:52:34.177Z,7.68
2022-07-26T02:55:25.362Z,7.05
2022-07-26T02:58:05.945Z,6.93
2022-07-26T03:00:34.873Z,7.15
2022-07-26T03:03:03.672Z,7.13
2022-07-26T03:05:31.363Z,8.63
2022-07-26T03:08:00.952Z,7.13
2022-07-26T03:10:28.623Z,7.40
2022-07-26T03:12:56.240Z,8.13
2022-07-26T03:15:24.040Z,8.07
2022-07-26T03:17:51.713Z,7.70
2022-07-26T03:20:19.098Z,7.88
2022-07-26T03:23:12.241Z,8.15
2022-07-26T03:25:49.164Z,8.82
2022-07-26T03:28:37.200Z,8.65
2022-07-26T03:32:13.108Z,9.27
2022-07-26T03:35:38.934Z,9.38
2022-07-26T03:38:36.091Z,9.18
2022-07-26T03:41:07.602Z,8.93
2022-07-26T03:43:36.366Z,8.30
2022-07-26T03:46:03.832Z,7.90
2022-07-26T03:51:35.317Z,7.25
2022-07-26T03:54:02.622Z,7.25
2022-07-26T03:56:31.900Z,7.45
2022-07-26T03:59:01.833Z,7.38
2022-07-26T04:04:32.311Z,7.63
2022-07-26T04:07:03.172Z,7.68
2022-07-26T04:09:31.227Z,7.90
2022-07-26T04:11:58.620Z,8.35
2022-07-26T04:14:26.186Z,7.82
2022-07-26T04:16:53.468Z,8.15
2022-07-26T04:19:20.713Z,8.65
2022-07-26T04:21:48.064Z,7.78
2022-07-26T04:24:15.300Z,8.15
2022-07-26T04:26:42.540Z,8.65
2022-07-26T04:29:12.822Z,7.70
2022-07-26T04:31:41.251Z,8.25
2022-07-26T04:34:08.747Z,7.63
2022-07-26T04:36:36.425Z,9.57
2022-07-26T04:39:03.900Z,7.65
2022-07-26T04:41:31.213Z,7.63
2022-07-26T04:43:58.628Z,7.30
2022-07-26T04:46:25.957Z,7.90
2022-07-26T04:48:53.616Z,7.85
2022-07-26T04:51:23.737Z,7.75
2022-07-26T04:53:51.449Z,7.22
2022-07-26T04:56:18.820Z,7.53
2022-07-26T04:58:50.500Z,8.00
2022-07-26T05:01:30.507Z,7.35
2022-07-26T05:03:57.883Z,7.70
2022-07-26T05:06:25.172Z,8.05
2022-07-26T05:08:52.724Z,7.50
2022-07-26T05:11:19.987Z,7.35
2022-07-26T05:13:47.272Z,7.35
2022-07-26T05:16:14.585Z,7.28
2022-07-26T05:18:46.060Z,7.32
2022-07-26T05:21:17.534Z,7.32
2022-07-26T05:23:44.834Z,6.80
2022-07-26T05:26:12.597Z,7.40
2022-07-26T05:28:40.679Z,7.28
2022-07-26T05:31:08.927Z,7.72
2022-07-26T05:33:36.620Z,7.32
2022-07-26T05:36:10.138Z,7.28
2022-07-26T05:38:38.103Z,7.28
2022-07-26T05:41:05.745Z,6.97
2022-07-26T05:43:41.428Z,7.78
2022-07-26T05:46:13.161Z,7.78
2022-07-26T05:48:40.780Z,7.43
2022-07-26T05:51:09.509Z,7.47
2022-07-26T05:53:37.418Z,7.50
2022-07-26T05:56:07.480Z,7.05
2022-07-26T05:58:34.782Z,7.32
2022-07-26T06:01:02.158Z,7.00
2022-07-26T06:03:30.232Z,6.82
2022-07-26T06:05:59.133Z,6.50
2022-07-26T06:08:27.185Z,7.10
2022-07-26T06:10:58.606Z,7.13
2022-07-26T06:13:25.979Z,7.55
2022-07-26T06:15:54.535Z,7.90
2022-07-26T06:18:22.290Z,7.25
2022-07-26T06:20:50.275Z,7.88
2022-07-26T06:23:17.547Z,8.07
2022-07-26T06:26:01.149Z,8.45
2022-07-26T06:28:34.281Z,7.07
2022-07-26T06:31:01.679Z,8.00
2022-07-26T06:33:34.536Z,9.00
2022-07-26T06:36:09.066Z,9.55
2022-07-26T06:38:36.872Z,9.45
2022-07-26T06:41:07.892Z,9.27
2022-07-26T07:23:17.326Z,8.13
2022-07-26T07:25:47.630Z,6.85
2022-07-26T07:28:16.685Z,6.80
2022-07-26T07:30:47.682Z,7.03
2022-07-26T07:33:22.409Z,6.78
2022-07-26T07:35:52.252Z,7.38
2022-07-26T07:38:19.720Z,7.40
2022-07-26T07:40:50.176Z,7.18
2022-07-26T07:43:20.730Z,7.38
2022-07-26T07:45:48.811Z,6.65
2022-07-26T07:48:16.694Z,6.47
2022-07-26T07:50:44.523Z,4.93
2022-07-26T07:53:14.668Z,5.93
2022-07-26T07:55:46.704Z,5.97
2022-07-26T07:58:19.001Z,6.28
2022-07-26T08:00:48.074Z,4.88
2022-07-26T08:03:17.910Z,5.65
2022-07-26T08:05:50.021Z,5.35
2022-07-26T08:08:22.052Z,5.70
2022-07-26T08:10:52.550Z,4.97
2022-07-26T08:13:22.836Z,5.43
2022-07-26T08:15:55.851Z,5.35
2022-07-26T08:18:34.216Z,5.38
2022-07-26T08:21:04.324Z,4.80
2022-07-26T08:23:34.720Z,4.60
2022-07-26T08:26:17.252Z,6.00
2022-07-26T08:29:13.937Z,8.80
2022-07-26T08:31:44.011Z,5.45
2022-07-26T08:34:21.291Z,5.80
2022-07-26T08:37:14.305Z,6.05
2022-07-26T08:39:37.478Z,5.97
2022-07-26T08:42:13.465Z,6.32
2022-07-26T08:44:50.236Z,5.50
2022-07-26T08:47:37.550Z,5.38
2022-07-26T08:50:09.675Z,6.22
2022-07-26T08:52:49.953Z,5.85
2022-07-26T08:55:21.324Z,5.63
2022-07-26T08:57:49.929Z,5.25
2022-07-26T09:00:34.442Z,5.03
2022-07-26T09:03:06.621Z,15.80
2022-07-26T09:05:37.569Z,5.40
2022-07-26T09:08:27.601Z,5.15
2022-07-26T09:10:57.258Z,6.05
2022-07-26T09:13:26.066Z,5.43
2022-07-26T09:16:11.028Z,5.35
2022-07-26T09:18:40.253Z,5.00
2022-07-26T09:21:26.684Z,4.85
2022-07-26T09:23:55.869Z,4.93
2022-07-26T09:26:27.366Z,4.70
2022-07-26T09:29:12.882Z,4.50
2022-07-26T09:31:44.495Z,4.25
2022-07-26T09:34:26.215Z,4.22
2022-07-26T09:36:54.701Z,3.20
2022-07-26T09:39:33.448Z,3.20
2022-07-26T09:42:28.459Z,3.20
2022-07-26T09:44:57.456Z,4.82
2022-07-26T09:47:40.019Z,4.10
2022-07-26T09:50:20.905Z,3.20
2022-07-26T09:53:09.876Z,3.20
2022-07-26T09:55:47.043Z,13.68
2022-07-26T09:58:16.226Z,3.88
2022-07-26T10:00:46.242Z,3.67
2022-07-26T10:03:16.757Z,4.00
2022-07-26T10:05:59.708Z,4.38
2022-07-26T10:08:27.867Z,4.28
2022-07-26T10:11:05.283Z,4.63
2022-07-26T10:13:33.539Z,5.35
2022-07-26T10:16:04.618Z,6.10
2022-07-26T10:18:39.032Z,6.90
2022-07-26T10:21:29.368Z,6.10
2022-07-26T10:24:01.578Z,5.15
2022-07-26T10:26:32.126Z,4.72
2022-07-26T10:29:17.865Z,4.30
2022-07-26T10:31:49.214Z,4.53
2022-07-26T10:34:34.620Z,4.38
2022-07-26T10:37:07.304Z,5.00
2022-07-26T10:39:35.635Z,5.40
2022-07-26T10:42:08.521Z,5.78
2022-07-26T10:44:45.463Z,5.63
2022-07-26T10:47:18.917Z,5.95
2022-07-26T10:49:59.664Z,5.38
2022-07-26T10:52:29.425Z,5.13
2022-07-26T10:54:57.195Z,6.00
2022-07-26T10:57:42.929Z,6.07
2022-07-26T11:00:17.436Z,5.53
2022-07-26T11:02:49.068Z,5.15
2022-07-26T11:05:17.652Z,4.78
2022-07-26T11:08:08.326Z,5.22
2022-07-26T11:10:42.362Z,4.22
2022-07-26T11:13:21.483Z,3.95
2022-07-26T11:15:58.528Z,4.20
2022-07-26T11:18:37.898Z,4.97
2022-07-26T11:21:13.540Z,4.55
2022-07-26T11:23:45.544Z,3.90
2022-07-26T11:26:15.946Z,4.28
2022-07-26T11:29:06.675Z,4.63
2022-07-26T11:31:55.772Z,4.00
2022-07-26T11:34:34.575Z,4.80
2022-07-26T11:37:07.250Z,4.10
2022-07-26T11:39:39.354Z,4.00
2022-07-26T11:42:16.481Z,4.70
2022-07-26T11:44:47.234Z,5.20
2022-07-26T11:47:20.409Z,5.45
2022-07-26T11:50:11.654Z,6.10
2022-07-26T11:52:40.089Z,5.50
2022-07-26T11:55:08.421Z,6.57
2022-07-26T11:57:40.327Z,4.50
2022-07-26T12:00:08.649Z,6.45
2022-07-26T12:02:36.875Z,6.88
2022-07-26T12:05:18.425Z,7.03
2022-07-26T12:07:59.115Z,7.13
2022-07-26T12:10:27.746Z,8.85
2022-07-26T12:13:12.027Z,9.55
2022-07-26T12:15:52.875Z,8.88
2022-07-26T12:18:32.813Z,9.35
2022-07-26T12:34:20.079Z,6.90
2022-07-26T12:37:41.806Z,6.78
2022-07-26T12:40:26.154Z,6.70
2022-07-26T13:08:22.545Z,2.92
2022-07-26T13:10:55.571Z,3.22
2022-07-26T13:13:30.413Z,3.38
2022-07-26T13:16:00.569Z,3.92
2022-07-26T13:28:22.120Z,3.08
2022-07-26T13:30:53.177Z,3.80
2022-07-26T13:36:07.896Z,3.72
2022-07-26T13:38:38.147Z,3.83
2022-07-26T13:41:09.098Z,4.10
2022-07-26T13:46:38.245Z,3.45
2022-07-26T13:52:05.884Z,3.92
2022-07-26T13:54:48.493Z,3.53
2022-07-26T14:03:14.103Z,3.50
2022-07-26T14:05:50.413Z,3.38
2022-07-26T14:08:20.562Z,3.78
2022-07-26T14:10:59.396Z,4.10
2022-07-26T14:13:27.956Z,3.40
2022-07-26T14:16:13.495Z,4.18
2022-07-26T14:18:46.340Z,4.07
2022-07-26T14:21:23.868Z,4.07
2022-07-26T14:24:09.903Z,4.03
2022-07-26T14:58:21.285Z,5.85
2022-07-26T15:00:53.265Z,5.25
2022-07-26T15:03:26.120Z,4.60
2022-07-26T15:09:10.627Z,4.55
2022-07-26T15:11:49.394Z,4.00
2022-07-26T15:20:06.557Z,4.28
2022-07-26T15:22:35.707Z,4.20
2022-07-26T15:25:05.100Z,4.32
2022-07-26T15:27:35.678Z,4.00
2022-07-26T15:30:13.658Z,3.55
2022-07-26T15:32:45.511Z,4.90
2022-07-26T15:35:23.109Z,4.07
2022-07-26T15:37:57.418Z,4.18
2022-07-26T15:40:31.505Z,3.90
2022-07-26T15:45:48.470Z,4.13
2022-07-26T15:54:46.946Z,3.85
2022-07-26T17:30:17.133Z,14.15
2022-07-26T17:35:29.547Z,5.88
2022-07-26T17:37:58.514Z,5.13
2022-07-26T17:43:42.711Z,5.40
2022-07-26T17:46:14.164Z,4.50
2022-07-26T17:55:55.636Z,5.72
2022-07-26T17:58:24.143Z,4.65
2022-07-26T18:00:55.128Z,5.50
2022-07-26T18:03:23.494Z,5.07
2022-07-26T18:05:52.895Z,5.53
2022-07-26T18:08:23.074Z,9.77
2022-07-26T18:10:59.141Z,4.97
2022-07-26T18:13:29.410Z,7.90
2022-07-26T18:16:02.857Z,5.80
2022-07-26T18:18:34.617Z,5.60
2022-07-26T18:21:04.989Z,4.70
2022-07-26T18:23:32.423Z,6.40
2022-07-26T18:29:42.070Z,4.93
2022-07-26T18:32:09.533Z,5.05
2022-07-26T18:34:36.840Z,9.85
2022-07-26T18:37:08.122Z,8.52
2022-07-26T18:39:36.584Z,14.63
2022-07-26T18:42:07.989Z,6.30
2022-07-26T18:44:41.209Z,10.32
2022-07-26T18:47:09.884Z,6.63
2022-07-26T18:49:38.496Z,5.97
2022-07-26T18:52:09.021Z,7.07
2022-07-26T18:54:37.207Z,6.40
2022-07-26T18:57:05.702Z,5.72
2022-07-26T18:59:34.984Z,5.78
2022-07-26T19:02:05.352Z,6.05
2022-07-26T19:04:34.127Z,6.40
2022-07-26T19:07:12.550Z,7.45
2022-07-26T19:09:46.105Z,6.18
2022-07-26T19:15:08.521Z,7.22
2022-07-26T19:33:14.452Z,6.30
2022-07-26T19:38:40.624Z,6.70
2022-07-26T19:44:23.803Z,6.72
2022-07-26T19:47:01.104Z,6.07
2022-07-26T19:58:26.981Z,6.75
2022-07-26T20:01:35.356Z,6.40
2022-07-26T20:04:10.679Z,7.22
2022-07-26T20:06:42.574Z,6.80
2022-07-26T20:09:10.918Z,6.60
2022-07-26T20:11:58.036Z,7.93
2022-07-26T20:14:28.335Z,5.82
2022-07-26T20:16:58.616Z,6.22
2022-07-26T20:19:31.262Z,5.30
2022-07-26T20:22:04.862Z,5.68
2022-07-26T20:24:41.027Z,5.45
2022-07-26T20:27:21.233Z,5.20
2022-07-26T20:29:54.187Z,5.22
2022-07-26T20:32:23.671Z,5.32
2022-07-26T20:34:52.223Z,10.50
2022-07-26T20:37:20.483Z,6.07
2022-07-26T20:39:51.504Z,6.70
2022-07-26T20:42:21.602Z,5.40
2022-07-26T20:44:52.961Z,5.47
2022-07-26T20:47:20.674Z,5.82
2022-07-26T20:49:48.932Z,5.18
2022-07-26T20:52:17.014Z,4.97
2022-07-26T20:54:47.599Z,5.57
2022-07-26T20:57:15.255Z,5.43
2022-07-26T20:59:43.761Z,5.40
2022-07-26T21:02:11.421Z,5.80
2022-07-26T21:04:40.352Z,5.75
2022-07-26T21:07:09.252Z,5.90
2022-07-26T21:09:39.527Z,5.95
2022-07-26T21:12:09.071Z,5.97
2022-07-26T21:14:36.797Z,6.22
2022-07-26T21:17:09.317Z,6.18
2022-07-26T21:19:38.808Z,6.90
2022-07-26T21:22:06.726Z,6.93
2022-07-26T21:24:35.226Z,7.18
2022-07-26T21:27:04.916Z,6.38
2022-07-26T21:29:38.117Z,6.60
2022-07-26T21:32:07.306Z,7.03
2022-07-26T21:34:35.528Z,6.22
2022-07-26T21:37:04.749Z,6.68
2022-07-26T21:39:36.654Z,6.10
2022-07-26T21:42:04.675Z,7.03
2022-07-26T21:44:33.028Z,7.93
2022-07-26T21:47:00.709Z,11.25
2022-07-26T21:49:28.455Z,7.32
2022-07-26T21:51:57.116Z,7.45
2022-07-26T21:54:24.695Z,7.53
2022-07-26T21:56:54.043Z,8.40
2022-07-26T21:59:23.323Z,7.70
2022-07-26T22:02:00.107Z,7.60
2022-07-26T22:04:28.713Z,7.13
2022-07-26T22:06:56.688Z,6.20
2022-07-26T22:09:26.842Z,6.50
2022-07-26T22:11:54.680Z,6.90
2022-07-26T22:14:25.628Z,7.40
2022-07-26T22:16:53.983Z,6.50
2022-07-26T22:19:21.558Z,6.68
2022-07-26T22:21:49.598Z,6.65
2022-07-26T22:24:17.500Z,6.97
2022-07-26T22:26:45.318Z,6.25
2022-07-26T22:29:13.281Z,6.60
2022-07-26T22:31:41.331Z,6.70
2022-07-26T22:34:09.640Z,5.78
2022-07-26T22:36:39.012Z,6.15
2022-07-26T22:39:11.477Z,5.80
2022-07-26T22:42:05.210Z,17.40
2022-07-26T22:44:29.267Z,9.85
2022-07-26T22:46:57.157Z,11.45
2022-07-26T22:49:24.784Z,8.18
2022-07-26T22:51:52.569Z,7.57
2022-07-26T22:54:20.126Z,6.97
2022-07-26T22:56:49.188Z,6.70
2022-07-26T22:59:17.247Z,6.65
2022-07-26T23:01:47.314Z,7.15
2022-07-26T23:04:19.867Z,10.20
2022-07-26T23:06:54.936Z,7.50
2022-07-26T23:09:25.085Z,8.70
2022-07-26T23:11:54.342Z,6.95
2022-07-26T23:14:22.580Z,8.75
2022-07-26T23:16:50.937Z,9.18
2022-07-26T23:19:21.438Z,8.95
2022-07-26T23:21:49.744Z,8.80
2022-07-26T23:24:17.281Z,8.32
2022-07-26T23:26:45.221Z,8.55
2022-07-26T23:29:13.002Z,8.73
2022-07-26T23:31:42.293Z,8.70
2022-07-26T23:34:09.898Z,14.25
2022-07-26T23:36:38.379Z,8.82
2022-07-26T23:39:06.164Z,9.07
2022-07-26T23:41:33.816Z,9.32
2022-07-26T23:44:01.831Z,8.85
2022-07-26T23:46:31.221Z,9.82
2022-07-26T23:48:59.114Z,9.25
2022-07-26T23:51:27.340Z,9.55
2022-07-26T23:53:55.133Z,9.32
2022-07-26T23:56:23.302Z,9.90
2022-07-26T23:58:51.186Z,9.05
